sensor_id;sensor_type;location;lat;lon;timestamp;P1;durP1;ratioP1;P2;durP2;ratioP2
46084;SDS011;31823;47.032;8.310;2022-11-20T00:02:00;12.23;;;8.30;;
46084;SDS011;31823;47.032;8.310;2022-11-20T00:04:26;11.77;;;7.95;;
46084;SDS011;31823;47.032;8.310;2022-11-20T00:06:51;13.13;;;8.48;;
46084;SDS011;31823;47.032;8.310;2022-11-20T00:09:17;10.90;;;8.15;;
46084;SDS011;31823;47.032;8.310;2022-11-20T00:11:42;14.48;;;8.82;;
46084;SDS011;31823;47.032;8.310;2022-11-20T00:14:08;20.20;;;9.18;;
46084;SDS011;31823;47.032;8.310;2022-11-20T00:16:35;18.65;;;9.63;;
46084;SDS011;31823;47.032;8.310;2022-11-20T00:19:00;14.07;;;9.00;;
46084;SDS011;31823;47.032;8.310;2022-11-20T00:21:27;12.85;;;8.68;;
46084;SDS011;31823;47.032;8.310;2022-11-20T00:23:54;14.50;;;9.10;;
46084;SDS011;31823;47.032;8.310;2022-11-20T00:26:21;17.38;;;9.85;;
46084;SDS011;31823;47.032;8.310;2022-11-20T00:28:51;16.23;;;8.95;;
46084;SDS011;31823;47.032;8.310;2022-11-20T00:31:18;17.25;;;8.88;;
46084;SDS011;31823;47.032;8.310;2022-11-20T00:33:44;15.00;;;9.38;;
46084;SDS011;31823;47.032;8.310;2022-11-20T00:36:12;14.73;;;9.20;;
46084;SDS011;31823;47.032;8.310;2022-11-20T00:38:46;16.70;;;9.50;;
46084;SDS011;31823;47.032;8.310;2022-11-20T00:41:13;13.70;;;8.55;;
46084;SDS011;31823;47.032;8.310;2022-11-20T00:43:40;18.35;;;8.38;;
46084;SDS011;31823;47.032;8.310;2022-11-20T00:46:08;14.57;;;8.55;;
46084;SDS011;31823;47.032;8.310;2022-11-20T00:48:40;12.38;;;8.13;;
46084;SDS011;31823;47.032;8.310;2022-11-20T00:51:06;11.70;;;8.00;;
46084;SDS011;31823;47.032;8.310;2022-11-20T00:53:31;13.40;;;7.53;;
46084;SDS011;31823;47.032;8.310;2022-11-20T00:56:01;10.90;;;7.68;;
46084;SDS011;31823;47.032;8.310;2022-11-20T00:58:30;10.10;;;7.07;;
46084;SDS011;31823;47.032;8.310;2022-11-20T01:01:05;13.45;;;8.02;;
46084;SDS011;31823;47.032;8.310;2022-11-20T01:03:35;13.82;;;7.60;;
46084;SDS011;31823;47.032;8.310;2022-11-20T01:06:07;13.93;;;6.82;;
46084;SDS011;31823;47.032;8.310;2022-11-20T01:08:37;11.75;;;7.35;;
46084;SDS011;31823;47.032;8.310;2022-11-20T01:11:04;12.80;;;6.90;;
46084;SDS011;31823;47.032;8.310;2022-11-20T01:13:31;11.23;;;7.13;;
46084;SDS011;31823;47.032;8.310;2022-11-20T01:18:31;16.52;;;8.75;;
46084;SDS011;31823;47.032;8.310;2022-11-20T01:21:02;13.23;;;7.85;;
46084;SDS011;31823;47.032;8.310;2022-11-20T01:23:33;11.45;;;8.00;;
46084;SDS011;31823;47.032;8.310;2022-11-20T01:26:00;13.50;;;7.65;;
46084;SDS011;31823;47.032;8.310;2022-11-20T01:28:28;12.85;;;7.93;;
46084;SDS011;31823;47.032;8.310;2022-11-20T01:30:54;12.57;;;7.85;;
46084;SDS011;31823;47.032;8.310;2022-11-20T01:33:19;15.40;;;7.10;;
46084;SDS011;31823;47.032;8.310;2022-11-20T01:35:45;9.70;;;6.90;;
46084;SDS011;31823;47.032;8.310;2022-11-20T01:38:11;13.77;;;7.20;;
46084;SDS011;31823;47.032;8.310;2022-11-20T01:40:37;12.82;;;7.22;;
46084;SDS011;31823;47.032;8.310;2022-11-20T01:43:18;11.20;;;7.50;;
46084;SDS011;31823;47.032;8.310;2022-11-20T01:54:08;9.98;;;6.88;;
46084;SDS011;31823;47.032;8.310;2022-11-20T01:56:40;11.70;;;7.97;;
46084;SDS011;31823;47.032;8.310;2022-11-20T01:59:09;13.50;;;7.20;;
46084;SDS011;31823;47.032;8.310;2022-11-20T02:01:37;13.82;;;6.68;;
46084;SDS011;31823;47.032;8.310;2022-11-20T02:04:04;11.05;;;7.00;;
46084;SDS011;31823;47.032;8.310;2022-11-20T02:06:34;10.93;;;7.13;;
46084;SDS011;31823;47.032;8.310;2022-11-20T02:09:05;11.75;;;7.03;;
46084;SDS011;31823;47.032;8.310;2022-11-20T02:11:30;11.43;;;7.03;;
46084;SDS011;31823;47.032;8.310;2022-11-20T02:13:57;12.77;;;7.50;;
46084;SDS011;31823;47.032;8.310;2022-11-20T02:16:24;11.30;;;6.32;;
46084;SDS011;31823;47.032;8.310;2022-11-20T02:18:53;7.55;;;5.95;;
46084;SDS011;31823;47.032;8.310;2022-11-20T02:21:22;10.02;;;6.45;;
46084;SDS011;31823;47.032;8.310;2022-11-20T02:29:12;10.35;;;6.07;;
46084;SDS011;31823;47.032;8.310;2022-11-20T02:31:41;12.30;;;6.25;;
46084;SDS011;31823;47.032;8.310;2022-11-20T02:34:08;6.85;;;5.70;;
46084;SDS011;31823;47.032;8.310;2022-11-20T02:36:34;11.15;;;5.68;;
46084;SDS011;31823;47.032;8.310;2022-11-20T02:39:02;14.63;;;5.95;;
46084;SDS011;31823;47.032;8.310;2022-11-20T02:41:33;11.05;;;5.55;;
46084;SDS011;31823;47.032;8.310;2022-11-20T02:44:03;8.65;;;5.35;;
46084;SDS011;31823;47.032;8.310;2022-11-20T02:46:29;9.10;;;5.88;;
46084;SDS011;31823;47.032;8.310;2022-11-20T02:48:56;10.85;;;5.50;;
46084;SDS011;31823;47.032;8.310;2022-11-20T02:51:21;10.40;;;6.45;;
46084;SDS011;31823;47.032;8.310;2022-11-20T02:53:47;8.65;;;5.65;;
46084;SDS011;31823;47.032;8.310;2022-11-20T02:56:13;5.88;;;4.57;;
46084;SDS011;31823;47.032;8.310;2022-11-20T02:58:38;10.30;;;5.47;;
46084;SDS011;31823;47.032;8.310;2022-11-20T03:01:04;8.43;;;5.90;;
46084;SDS011;31823;47.032;8.310;2022-11-20T03:03:30;10.02;;;6.43;;
46084;SDS011;31823;47.032;8.310;2022-11-20T03:05:58;12.82;;;6.63;;
46084;SDS011;31823;47.032;8.310;2022-11-20T03:08:24;11.00;;;7.13;;
46084;SDS011;31823;47.032;8.310;2022-11-20T03:10:50;16.27;;;7.07;;
46084;SDS011;31823;47.032;8.310;2022-11-20T03:13:16;11.75;;;6.72;;
46084;SDS011;31823;47.032;8.310;2022-11-20T03:15:42;12.00;;;7.43;;
46084;SDS011;31823;47.032;8.310;2022-11-20T03:18:08;11.68;;;6.82;;
46084;SDS011;31823;47.032;8.310;2022-11-20T03:20:33;11.85;;;7.68;;
46084;SDS011;31823;47.032;8.310;2022-11-20T03:22:59;11.20;;;6.65;;
46084;SDS011;31823;47.032;8.310;2022-11-20T03:25:25;11.07;;;7.07;;
46084;SDS011;31823;47.032;8.310;2022-11-20T03:27:51;12.48;;;6.60;;
46084;SDS011;31823;47.032;8.310;2022-11-20T03:30:16;9.57;;;6.82;;
46084;SDS011;31823;47.032;8.310;2022-11-20T03:32:42;13.02;;;7.25;;
46084;SDS011;31823;47.032;8.310;2022-11-20T03:35:09;11.55;;;6.30;;
46084;SDS011;31823;47.032;8.310;2022-11-20T03:37:34;11.55;;;6.68;;
46084;SDS011;31823;47.032;8.310;2022-11-20T03:40:00;8.90;;;5.97;;
46084;SDS011;31823;47.032;8.310;2022-11-20T03:42:26;11.07;;;6.88;;
46084;SDS011;31823;47.032;8.310;2022-11-20T03:45:10;10.10;;;6.88;;
46084;SDS011;31823;47.032;8.310;2022-11-20T03:47:36;11.73;;;6.32;;
46084;SDS011;31823;47.032;8.310;2022-11-20T03:50:01;11.15;;;6.95;;
46084;SDS011;31823;47.032;8.310;2022-11-20T03:52:27;8.50;;;6.68;;
46084;SDS011;31823;47.032;8.310;2022-11-20T03:54:53;11.63;;;7.03;;
46084;SDS011;31823;47.032;8.310;2022-11-20T03:57:19;9.68;;;6.75;;
46084;SDS011;31823;47.032;8.310;2022-11-20T03:59:44;9.40;;;6.88;;
46084;SDS011;31823;47.032;8.310;2022-11-20T04:02:10;10.38;;;6.72;;
46084;SDS011;31823;47.032;8.310;2022-11-20T04:04:35;10.63;;;6.90;;
46084;SDS011;31823;47.032;8.310;2022-11-20T04:07:01;12.13;;;5.95;;
46084;SDS011;31823;47.032;8.310;2022-11-20T04:09:27;6.90;;;4.72;;
46084;SDS011;31823;47.032;8.310;2022-11-20T04:11:53;8.50;;;4.85;;
46084;SDS011;31823;47.032;8.310;2022-11-20T04:14:18;6.95;;;4.50;;
46084;SDS011;31823;47.032;8.310;2022-11-20T04:16:44;5.75;;;3.75;;
46084;SDS011;31823;47.032;8.310;2022-11-20T04:19:11;6.18;;;4.18;;
46084;SDS011;31823;47.032;8.310;2022-11-20T04:21:39;9.35;;;3.78;;
46084;SDS011;31823;47.032;8.310;2022-11-20T04:24:05;5.85;;;3.45;;
46084;SDS011;31823;47.032;8.310;2022-11-20T04:26:31;4.80;;;3.22;;
46084;SDS011;31823;47.032;8.310;2022-11-20T04:28:57;5.70;;;2.72;;
46084;SDS011;31823;47.032;8.310;2022-11-20T04:31:24;5.57;;;2.42;;
46084;SDS011;31823;47.032;8.310;2022-11-20T04:33:52;3.78;;;2.20;;
46084;SDS011;31823;47.032;8.310;2022-11-20T04:36:18;3.47;;;1.98;;
46084;SDS011;31823;47.032;8.310;2022-11-20T04:38:46;3.90;;;2.00;;
46084;SDS011;31823;47.032;8.310;2022-11-20T04:41:16;4.35;;;2.15;;
46084;SDS011;31823;47.032;8.310;2022-11-20T04:43:51;2.42;;;1.80;;
46084;SDS011;31823;47.032;8.310;2022-11-20T04:46:19;4.82;;;1.98;;
46084;SDS011;31823;47.032;8.310;2022-11-20T04:48:45;3.97;;;1.92;;
46084;SDS011;31823;47.032;8.310;2022-11-20T04:51:12;3.95;;;1.92;;
46084;SDS011;31823;47.032;8.310;2022-11-20T04:53:38;3.53;;;2.20;;
46084;SDS011;31823;47.032;8.310;2022-11-20T04:56:05;4.90;;;2.72;;
46084;SDS011;31823;47.032;8.310;2022-11-20T04:58:32;3.47;;;2.47;;
46084;SDS011;31823;47.032;8.310;2022-11-20T05:03:28;3.20;;;2.67;;
46084;SDS011;31823;47.032;8.310;2022-11-20T05:05:54;4.85;;;2.22;;
46084;SDS011;31823;47.032;8.310;2022-11-20T05:08:20;5.97;;;3.13;;
46084;SDS011;31823;47.032;8.310;2022-11-20T05:10:45;4.40;;;3.03;;
46084;SDS011;31823;47.032;8.310;2022-11-20T05:13:11;12.68;;;4.07;;
46084;SDS011;31823;47.032;8.310;2022-11-20T05:15:37;3.53;;;3.20;;
46084;SDS011;31823;47.032;8.310;2022-11-20T05:18:02;7.38;;;3.65;;
46084;SDS011;31823;47.032;8.310;2022-11-20T05:20:28;4.50;;;3.30;;
46084;SDS011;31823;47.032;8.310;2022-11-20T05:22:56;5.50;;;3.63;;
46084;SDS011;31823;47.032;8.310;2022-11-20T05:25:22;4.97;;;3.40;;
46084;SDS011;31823;47.032;8.310;2022-11-20T05:27:48;7.13;;;3.88;;
46084;SDS011;31823;47.032;8.310;2022-11-20T05:30:13;7.97;;;3.90;;
46084;SDS011;31823;47.032;8.310;2022-11-20T05:32:39;5.28;;;3.92;;
46084;SDS011;31823;47.032;8.310;2022-11-20T05:35:05;6.45;;;4.43;;
46084;SDS011;31823;47.032;8.310;2022-11-20T05:37:31;5.45;;;4.00;;
46084;SDS011;31823;47.032;8.310;2022-11-20T05:39:56;6.72;;;3.78;;
46084;SDS011;31823;47.032;8.310;2022-11-20T05:42:22;6.18;;;3.88;;
46084;SDS011;31823;47.032;8.310;2022-11-20T05:45:00;9.48;;;4.80;;
46084;SDS011;31823;47.032;8.310;2022-11-20T05:47:28;7.47;;;4.50;;
46084;SDS011;31823;47.032;8.310;2022-11-20T05:49:56;6.25;;;4.00;;
46084;SDS011;31823;47.032;8.310;2022-11-20T05:52:22;5.38;;;4.10;;
46084;SDS011;31823;47.032;8.310;2022-11-20T05:54:47;5.50;;;4.07;;
46084;SDS011;31823;47.032;8.310;2022-11-20T05:57:13;7.57;;;3.70;;
46084;SDS011;31823;47.032;8.310;2022-11-20T05:59:39;6.18;;;3.35;;
46084;SDS011;31823;47.032;8.310;2022-11-20T06:02:04;6.18;;;4.00;;
46084;SDS011;31823;47.032;8.310;2022-11-20T06:04:30;6.65;;;4.07;;
46084;SDS011;31823;47.032;8.310;2022-11-20T06:06:56;6.50;;;4.00;;
46084;SDS011;31823;47.032;8.310;2022-11-20T06:09:21;9.90;;;4.70;;
46084;SDS011;31823;47.032;8.310;2022-11-20T06:11:47;8.52;;;4.30;;
46084;SDS011;31823;47.032;8.310;2022-11-20T06:14:12;8.48;;;5.00;;
46084;SDS011;31823;47.032;8.310;2022-11-20T06:16:38;8.98;;;4.72;;
46084;SDS011;31823;47.032;8.310;2022-11-20T06:19:03;7.45;;;4.80;;
46084;SDS011;31823;47.032;8.310;2022-11-20T06:21:29;7.55;;;4.88;;
46084;SDS011;31823;47.032;8.310;2022-11-20T06:23:55;10.25;;;4.47;;
46084;SDS011;31823;47.032;8.310;2022-11-20T06:26:21;8.90;;;4.15;;
46084;SDS011;31823;47.032;8.310;2022-11-20T06:28:48;5.85;;;4.40;;
46084;SDS011;31823;47.032;8.310;2022-11-20T06:31:19;8.30;;;4.50;;
46084;SDS011;31823;47.032;8.310;2022-11-20T06:33:46;6.40;;;4.32;;
46084;SDS011;31823;47.032;8.310;2022-11-20T06:36:12;8.85;;;4.60;;
46084;SDS011;31823;47.032;8.310;2022-11-20T06:38:40;7.05;;;4.82;;
46084;SDS011;31823;47.032;8.310;2022-11-20T06:41:06;7.00;;;4.63;;
46084;SDS011;31823;47.032;8.310;2022-11-20T06:43:34;6.35;;;4.50;;
46084;SDS011;31823;47.032;8.310;2022-11-20T06:46:00;10.00;;;4.93;;
46084;SDS011;31823;47.032;8.310;2022-11-20T06:48:26;8.25;;;5.00;;
46084;SDS011;31823;47.032;8.310;2022-11-20T06:50:53;6.78;;;4.63;;
46084;SDS011;31823;47.032;8.310;2022-11-20T06:53:18;6.18;;;4.93;;
46084;SDS011;31823;47.032;8.310;2022-11-20T06:55:47;6.82;;;4.00;;
46084;SDS011;31823;47.032;8.310;2022-11-20T06:58:13;5.55;;;3.95;;
46084;SDS011;31823;47.032;8.310;2022-11-20T07:00:40;6.15;;;3.67;;
46084;SDS011;31823;47.032;8.310;2022-11-20T07:03:06;8.40;;;4.50;;
46084;SDS011;31823;47.032;8.310;2022-11-20T07:05:34;5.20;;;3.88;;
46084;SDS011;31823;47.032;8.310;2022-11-20T07:08:00;8.25;;;4.40;;
46084;SDS011;31823;47.032;8.310;2022-11-20T07:10:27;5.53;;;4.30;;
46084;SDS011;31823;47.032;8.310;2022-11-20T07:12:53;5.38;;;4.28;;
46084;SDS011;31823;47.032;8.310;2022-11-20T07:15:19;5.88;;;3.70;;
46084;SDS011;31823;47.032;8.310;2022-11-20T07:17:46;5.55;;;4.22;;
46084;SDS011;31823;47.032;8.310;2022-11-20T07:20:13;7.85;;;4.72;;
46084;SDS011;31823;47.032;8.310;2022-11-20T07:22:39;8.73;;;3.92;;
46084;SDS011;31823;47.032;8.310;2022-11-20T07:25:05;5.50;;;4.20;;
46084;SDS011;31823;47.032;8.310;2022-11-20T07:27:31;7.20;;;4.15;;
46084;SDS011;31823;47.032;8.310;2022-11-20T07:30:00;5.65;;;3.88;;
46084;SDS011;31823;47.032;8.310;2022-11-20T07:32:32;4.85;;;4.00;;
46084;SDS011;31823;47.032;8.310;2022-11-20T07:34:58;5.18;;;3.60;;
46084;SDS011;31823;47.032;8.310;2022-11-20T07:37:23;7.45;;;4.40;;
46084;SDS011;31823;47.032;8.310;2022-11-20T07:39:49;6.28;;;4.00;;
46084;SDS011;31823;47.032;8.310;2022-11-20T07:42:15;7.35;;;4.68;;
46084;SDS011;31823;47.032;8.310;2022-11-20T07:44:40;8.95;;;5.00;;
46084;SDS011;31823;47.032;8.310;2022-11-20T07:47:06;5.45;;;4.28;;
46084;SDS011;31823;47.032;8.310;2022-11-20T07:49:32;7.90;;;3.97;;
46084;SDS011;31823;47.032;8.310;2022-11-20T07:51:58;5.00;;;4.03;;
46084;SDS011;31823;47.032;8.310;2022-11-20T07:54:23;8.02;;;4.72;;
46084;SDS011;31823;47.032;8.310;2022-11-20T07:56:49;6.40;;;4.28;;
46084;SDS011;31823;47.032;8.310;2022-11-20T07:59:15;10.45;;;4.93;;
46084;SDS011;31823;47.032;8.310;2022-11-20T08:01:41;8.82;;;6.07;;
46084;SDS011;31823;47.032;8.310;2022-11-20T08:04:07;8.98;;;6.10;;
46084;SDS011;31823;47.032;8.310;2022-11-20T08:06:34;11.20;;;6.43;;
46084;SDS011;31823;47.032;8.310;2022-11-20T08:09:00;10.35;;;6.03;;
46084;SDS011;31823;47.032;8.310;2022-11-20T08:11:26;8.45;;;5.68;;
46084;SDS011;31823;47.032;8.310;2022-11-20T08:14:10;9.90;;;4.75;;
46084;SDS011;31823;47.032;8.310;2022-11-20T08:16:42;7.30;;;4.13;;
46084;SDS011;31823;47.032;8.310;2022-11-20T08:19:09;9.40;;;3.95;;
46084;SDS011;31823;47.032;8.310;2022-11-20T08:21:35;6.28;;;3.58;;
46084;SDS011;31823;47.032;8.310;2022-11-20T08:24:00;5.25;;;3.13;;
46084;SDS011;31823;47.032;8.310;2022-11-20T08:26:26;7.63;;;3.08;;
46084;SDS011;31823;47.032;8.310;2022-11-20T08:28:55;4.25;;;3.03;;
46084;SDS011;31823;47.032;8.310;2022-11-20T08:31:22;5.18;;;2.67;;
46084;SDS011;31823;47.032;8.310;2022-11-20T08:33:51;3.60;;;3.30;;
46084;SDS011;31823;47.032;8.310;2022-11-20T08:36:17;8.27;;;4.38;;
46084;SDS011;31823;47.032;8.310;2022-11-20T08:38:48;6.18;;;3.65;;
46084;SDS011;31823;47.032;8.310;2022-11-20T08:41:14;7.20;;;4.00;;
46084;SDS011;31823;47.032;8.310;2022-11-20T08:43:50;6.68;;;4.28;;
46084;SDS011;31823;47.032;8.310;2022-11-20T08:46:18;5.63;;;4.45;;
46084;SDS011;31823;47.032;8.310;2022-11-20T08:48:44;6.50;;;3.72;;
46084;SDS011;31823;47.032;8.310;2022-11-20T08:51:10;6.43;;;4.22;;
46084;SDS011;31823;47.032;8.310;2022-11-20T08:53:36;4.93;;;3.97;;
46084;SDS011;31823;47.032;8.310;2022-11-20T08:56:02;7.65;;;3.95;;
46084;SDS011;31823;47.032;8.310;2022-11-20T08:58:28;5.95;;;4.00;;
46084;SDS011;31823;47.032;8.310;2022-11-20T09:00:53;5.10;;;4.55;;
46084;SDS011;31823;47.032;8.310;2022-11-20T09:03:19;4.53;;;4.03;;
46084;SDS011;31823;47.032;8.310;2022-11-20T09:05:45;6.22;;;3.80;;
46084;SDS011;31823;47.032;8.310;2022-11-20T09:08:11;7.85;;;3.75;;
46084;SDS011;31823;47.032;8.310;2022-11-20T09:10:37;6.80;;;4.28;;
46084;SDS011;31823;47.032;8.310;2022-11-20T09:13:04;6.45;;;3.90;;
46084;SDS011;31823;47.032;8.310;2022-11-20T09:15:30;4.72;;;3.95;;
46084;SDS011;31823;47.032;8.310;2022-11-20T09:17:57;5.38;;;3.80;;
46084;SDS011;31823;47.032;8.310;2022-11-20T09:20:25;4.50;;;3.15;;
46084;SDS011;31823;47.032;8.310;2022-11-20T09:22:53;4.35;;;3.72;;
46084;SDS011;31823;47.032;8.310;2022-11-20T09:25:19;4.22;;;3.45;;
46084;SDS011;31823;47.032;8.310;2022-11-20T09:27:45;4.40;;;3.20;;
46084;SDS011;31823;47.032;8.310;2022-11-20T09:30:12;4.75;;;2.65;;
46084;SDS011;31823;47.032;8.310;2022-11-20T09:32:39;3.80;;;2.95;;
46084;SDS011;31823;47.032;8.310;2022-11-20T09:35:05;2.70;;;2.33;;
46084;SDS011;31823;47.032;8.310;2022-11-20T09:37:31;3.45;;;2.28;;
46084;SDS011;31823;47.032;8.310;2022-11-20T09:39:57;3.65;;;2.65;;
46084;SDS011;31823;47.032;8.310;2022-11-20T09:51:05;5.05;;;2.55;;
46084;SDS011;31823;47.032;8.310;2022-11-20T09:56:24;4.43;;;2.72;;
46084;SDS011;31823;47.032;8.310;2022-11-20T09:58:51;6.80;;;2.90;;
46084;SDS011;31823;47.032;8.310;2022-11-20T10:01:19;3.30;;;3.00;;
46084;SDS011;31823;47.032;8.310;2022-11-20T10:06:17;4.03;;;3.15;;
46084;SDS011;31823;47.032;8.310;2022-11-20T10:14:38;3.15;;;2.85;;
46084;SDS011;31823;47.032;8.310;2022-11-20T10:20:33;2.50;;;2.30;;
46084;SDS011;31823;47.032;8.310;2022-11-20T10:31:36;3.30;;;3.00;;
46084;SDS011;31823;47.032;8.310;2022-11-20T10:34:12;5.18;;;2.90;;
46084;SDS011;31823;47.032;8.310;2022-11-20T10:47:55;2.85;;;2.55;;
46084;SDS011;31823;47.032;8.310;2022-11-20T10:50:46;3.50;;;3.10;;
46084;SDS011;31823;47.032;8.310;2022-11-20T10:59:02;2.13;;;1.92;;
46084;SDS011;31823;47.032;8.310;2022-11-20T11:01:43;4.38;;;2.63;;
46084;SDS011;31823;47.032;8.310;2022-11-20T11:04:42;3.00;;;2.70;;
46084;SDS011;31823;47.032;8.310;2022-11-20T11:09:56;3.22;;;2.70;;
46084;SDS011;31823;47.032;8.310;2022-11-20T11:12:23;4.85;;;2.45;;
46084;SDS011;31823;47.032;8.310;2022-11-20T11:14:52;4.45;;;1.95;;
46084;SDS011;31823;47.032;8.310;2022-11-20T11:19:59;3.72;;;2.20;;
46084;SDS011;31823;47.032;8.310;2022-11-20T11:22:26;3.60;;;2.13;;
46084;SDS011;31823;47.032;8.310;2022-11-20T11:24:55;2.50;;;2.03;;
46084;SDS011;31823;47.032;8.310;2022-11-20T11:27:20;2.10;;;1.23;;
46084;SDS011;31823;47.032;8.310;2022-11-20T11:29:46;1.30;;;1.20;;
46084;SDS011;31823;47.032;8.310;2022-11-20T11:32:17;0.90;;;0.90;;
46084;SDS011;31823;47.032;8.310;2022-11-20T11:34:44;1.10;;;1.08;;
46084;SDS011;31823;47.032;8.310;2022-11-20T11:37:15;1.20;;;1.10;;
46084;SDS011;31823;47.032;8.310;2022-11-20T11:39:44;1.10;;;1.00;;
46084;SDS011;31823;47.032;8.310;2022-11-20T11:42:13;1.35;;;1.25;;
46084;SDS011;31823;47.032;8.310;2022-11-20T11:44:46;1.98;;;1.30;;
46084;SDS011;31823;47.032;8.310;2022-11-20T11:47:32;1.20;;;1.10;;
46084;SDS011;31823;47.032;8.310;2022-11-20T12:09:47;1.52;;;1.40;;
46084;SDS011;31823;47.032;8.310;2022-11-20T12:12:17;1.95;;;1.50;;
46084;SDS011;31823;47.032;8.310;2022-11-20T12:14:47;2.17;;;1.85;;
46084;SDS011;31823;47.032;8.310;2022-11-20T12:17:16;1.73;;;1.55;;
46084;SDS011;31823;47.032;8.310;2022-11-20T12:19:42;1.98;;;1.38;;
46084;SDS011;31823;47.032;8.310;2022-11-20T12:24:55;3.25;;;1.67;;
46084;SDS011;31823;47.032;8.310;2022-11-20T12:27:39;2.55;;;1.95;;
46084;SDS011;31823;47.032;8.310;2022-11-20T12:30:23;2.10;;;1.27;;
46084;SDS011;31823;47.032;8.310;2022-11-20T12:43:37;1.70;;;1.60;;
46084;SDS011;31823;47.032;8.310;2022-11-20T12:46:36;4.32;;;1.95;;
46084;SDS011;31823;47.032;8.310;2022-11-20T12:54:29;3.60;;;2.50;;
46084;SDS011;31823;47.032;8.310;2022-11-20T12:57:21;3.00;;;2.45;;
46084;SDS011;31823;47.032;8.310;2022-11-20T13:00:08;2.13;;;1.92;;
46084;SDS011;31823;47.032;8.310;2022-11-20T13:08:02;3.03;;;2.22;;
46084;SDS011;31823;47.032;8.310;2022-11-20T13:13:15;4.37;;;1.93;;
46084;SDS011;31823;47.032;8.310;2022-11-20T13:15:55;4.80;;;2.08;;
46084;SDS011;31823;47.032;8.310;2022-11-20T13:18:38;2.55;;;1.80;;
46084;SDS011;31823;47.032;8.310;2022-11-20T13:21:14;2.45;;;1.70;;
46084;SDS011;31823;47.032;8.310;2022-11-20T13:23:41;3.05;;;1.90;;
46084;SDS011;31823;47.032;8.310;2022-11-20T13:26:19;2.85;;;1.88;;
46084;SDS011;31823;47.032;8.310;2022-11-20T13:28:48;2.38;;;1.95;;
46084;SDS011;31823;47.032;8.310;2022-11-20T13:31:32;2.03;;;1.88;;
46084;SDS011;31823;47.032;8.310;2022-11-20T13:34:01;2.80;;;1.80;;
46084;SDS011;31823;47.032;8.310;2022-11-20T13:36:30;1.42;;;1.33;;
46084;SDS011;31823;47.032;8.310;2022-11-20T13:38:57;3.17;;;1.45;;
46084;SDS011;31823;47.032;8.310;2022-11-20T13:41:30;2.30;;;1.50;;
46084;SDS011;31823;47.032;8.310;2022-11-20T13:46:34;1.30;;;1.20;;
46084;SDS011;31823;47.032;8.310;2022-11-20T13:49:06;2.15;;;1.50;;
46084;SDS011;31823;47.032;8.310;2022-11-20T13:51:40;1.05;;;0.95;;
46084;SDS011;31823;47.032;8.310;2022-11-20T13:57:05;3.08;;;1.20;;
46084;SDS011;31823;47.032;8.310;2022-11-20T13:59:57;1.33;;;1.23;;
46084;SDS011;31823;47.032;8.310;2022-11-20T14:02:29;2.42;;;1.38;;
46084;SDS011;31823;47.032;8.310;2022-11-20T14:04:57;1.92;;;1.70;;
46084;SDS011;31823;47.032;8.310;2022-11-20T14:07:31;2.80;;;1.38;;
46084;SDS011;31823;47.032;8.310;2022-11-20T14:10:02;1.65;;;1.55;;
46084;SDS011;31823;47.032;8.310;2022-11-20T14:12:29;3.20;;;1.95;;
46084;SDS011;31823;47.032;8.310;2022-11-20T14:14:56;2.88;;;2.03;;
46084;SDS011;31823;47.032;8.310;2022-11-20T14:19:54;2.80;;;2.28;;
46084;SDS011;31823;47.032;8.310;2022-11-20T14:22:37;2.55;;;1.92;;
46084;SDS011;31823;47.032;8.310;2022-11-20T14:25:04;4.55;;;2.35;;
46084;SDS011;31823;47.032;8.310;2022-11-20T14:27:50;3.72;;;2.25;;
46084;SDS011;31823;47.032;8.310;2022-11-20T14:30:22;4.07;;;1.90;;
46084;SDS011;31823;47.032;8.310;2022-11-20T14:32:50;3.10;;;1.50;;
46084;SDS011;31823;47.032;8.310;2022-11-20T14:35:25;2.55;;;1.60;;
46084;SDS011;31823;47.032;8.310;2022-11-20T14:37:51;3.60;;;1.80;;
46084;SDS011;31823;47.032;8.310;2022-11-20T14:40:25;4.70;;;1.73;;
46084;SDS011;31823;47.032;8.310;2022-11-20T14:42:53;3.05;;;1.83;;
46084;SDS011;31823;47.032;8.310;2022-11-20T14:45:18;2.13;;;1.60;;
46084;SDS011;31823;47.032;8.310;2022-11-20T14:47:45;3.53;;;2.25;;
46084;SDS011;31823;47.032;8.310;2022-11-20T14:50:19;5.10;;;2.00;;
46084;SDS011;31823;47.032;8.310;2022-11-20T14:52:58;3.17;;;1.75;;
46084;SDS011;31823;47.032;8.310;2022-11-20T14:55:32;3.47;;;1.77;;
46084;SDS011;31823;47.032;8.310;2022-11-20T14:58:00;3.97;;;2.53;;
46084;SDS011;31823;47.032;8.310;2022-11-20T15:00:28;2.67;;;2.00;;
46084;SDS011;31823;47.032;8.310;2022-11-20T15:02:55;2.00;;;1.80;;
46084;SDS011;31823;47.032;8.310;2022-11-20T15:05:25;3.55;;;1.80;;
46084;SDS011;31823;47.032;8.310;2022-11-20T15:08:12;3.33;;;2.10;;
46084;SDS011;31823;47.032;8.310;2022-11-20T15:10:39;2.95;;;2.10;;
46084;SDS011;31823;47.032;8.310;2022-11-20T15:13:12;2.35;;;2.00;;
46084;SDS011;31823;47.032;8.310;2022-11-20T15:18:17;4.05;;;1.92;;
46084;SDS011;31823;47.032;8.310;2022-11-20T15:20:45;2.92;;;1.75;;
46084;SDS011;31823;47.032;8.310;2022-11-20T15:23:12;2.58;;;1.90;;
46084;SDS011;31823;47.032;8.310;2022-11-20T15:25:40;3.28;;;1.80;;
46084;SDS011;31823;47.032;8.310;2022-11-20T15:30:50;6.05;;;2.28;;
46084;SDS011;31823;47.032;8.310;2022-11-20T15:33:16;4.70;;;1.80;;
46084;SDS011;31823;47.032;8.310;2022-11-20T15:35:42;4.90;;;1.90;;
46084;SDS011;31823;47.032;8.310;2022-11-20T15:38:09;2.17;;;1.77;;
46084;SDS011;31823;47.032;8.310;2022-11-20T15:40:34;3.80;;;1.90;;
46084;SDS011;31823;47.032;8.310;2022-11-20T15:43:00;4.60;;;2.00;;
46084;SDS011;31823;47.032;8.310;2022-11-20T15:48:10;2.17;;;1.60;;
46084;SDS011;31823;47.032;8.310;2022-11-20T15:50:49;1.83;;;1.70;;
46084;SDS011;31823;47.032;8.310;2022-11-20T15:53:16;2.75;;;1.80;;
46084;SDS011;31823;47.032;8.310;2022-11-20T15:55:41;5.15;;;2.75;;
46084;SDS011;31823;47.032;8.310;2022-11-20T15:58:07;4.13;;;2.10;;
46084;SDS011;31823;47.032;8.310;2022-11-20T16:00:32;3.97;;;1.92;;
46084;SDS011;31823;47.032;8.310;2022-11-20T16:02:58;3.50;;;1.83;;
46084;SDS011;31823;47.032;8.310;2022-11-20T16:05:25;2.92;;;1.60;;
46084;SDS011;31823;47.032;8.310;2022-11-20T16:07:53;4.50;;;2.20;;
46084;SDS011;31823;47.032;8.310;2022-11-20T16:10:18;1.73;;;1.60;;
46084;SDS011;31823;47.032;8.310;2022-11-20T16:12:44;2.03;;;1.80;;
46084;SDS011;31823;47.032;8.310;2022-11-20T16:15:28;4.10;;;1.95;;
46084;SDS011;31823;47.032;8.310;2022-11-20T16:18:14;4.18;;;2.20;;
46084;SDS011;31823;47.032;8.310;2022-11-20T16:20:43;2.70;;;1.73;;
46084;SDS011;31823;47.032;8.310;2022-11-20T16:23:09;3.88;;;1.83;;
46084;SDS011;31823;47.032;8.310;2022-11-20T16:25:35;4.82;;;3.05;;
46084;SDS011;31823;47.032;8.310;2022-11-20T16:28:00;8.52;;;3.88;;
46084;SDS011;31823;47.032;8.310;2022-11-20T16:30:26;6.55;;;4.43;;
46084;SDS011;31823;47.032;8.310;2022-11-20T16:32:52;6.20;;;3.00;;
46084;SDS011;31823;47.032;8.310;2022-11-20T16:35:17;4.50;;;2.90;;
46084;SDS011;31823;47.032;8.310;2022-11-20T16:37:43;5.10;;;3.00;;
46084;SDS011;31823;47.032;8.310;2022-11-20T16:40:09;3.45;;;2.85;;
46084;SDS011;31823;47.032;8.310;2022-11-20T16:42:36;4.18;;;2.53;;
46084;SDS011;31823;47.032;8.310;2022-11-20T16:45:03;19.90;;;13.55;;
46084;SDS011;31823;47.032;8.310;2022-11-20T16:47:32;42.25;;;27.20;;
46084;SDS011;31823;47.032;8.310;2022-11-20T16:50:01;43.97;;;30.63;;
46084;SDS011;31823;47.032;8.310;2022-11-20T16:52:28;24.27;;;15.80;;
46084;SDS011;31823;47.032;8.310;2022-11-20T16:54:55;20.15;;;13.30;;
46084;SDS011;31823;47.032;8.310;2022-11-20T16:57:21;18.35;;;12.25;;
46084;SDS011;31823;47.032;8.310;2022-11-20T16:59:47;33.75;;;16.75;;
46084;SDS011;31823;47.032;8.310;2022-11-20T17:02:13;30.63;;;13.90;;
46084;SDS011;31823;47.032;8.310;2022-11-20T17:04:39;25.35;;;11.13;;
46084;SDS011;31823;47.032;8.310;2022-11-20T17:07:05;32.30;;;14.95;;